createdAt,value
2023-05-01T00:02:27.090Z,12.60
2023-05-01T00:04:55.112Z,12.60
2023-05-01T00:07:23.081Z,12.60
2023-05-01T00:09:51.761Z,12.60
2023-05-01T00:12:19.687Z,12.60
2023-05-01T00:14:47.544Z,12.60
2023-05-01T00:17:17.140Z,12.60
2023-05-01T00:19:45.127Z,12.50
2023-05-01T00:22:13.020Z,12.50
2023-05-01T00:24:40.907Z,12.50
2023-05-01T00:27:08.892Z,12.50
2023-05-01T00:29:36.796Z,12.50
2023-05-01T00:32:05.637Z,12.50
2023-05-01T00:34:35.212Z,12.50
2023-05-01T00:37:03.314Z,12.50
2023-05-01T00:39:31.258Z,12.50
2023-05-01T00:41:59.270Z,12.50
2023-05-01T00:44:27.211Z,12.50
2023-05-01T00:46:56.458Z,12.50
2023-05-01T00:49:24.293Z,12.60
2023-05-01T00:51:54.172Z,12.60
2023-05-01T00:54:23.057Z,12.60
2023-05-01T00:56:52.124Z,12.80
2023-05-01T00:59:20.085Z,12.60
2023-05-01T01:01:47.949Z,12.70
2023-05-01T01:04:15.989Z,12.70
2023-05-01T01:06:53.400Z,12.70
2023-05-01T01:09:32.923Z,12.70
2023-05-01T01:12:10.681Z,12.70
2023-05-01T01:14:46.266Z,12.70
2023-05-01T01:17:22.268Z,12.70
2023-05-01T01:20:16.601Z,12.70
2023-05-01T01:22:50.708Z,12.70
2023-05-01T01:25:48.898Z,12.70
2023-05-01T01:28:41.940Z,12.70
2023-05-01T01:31:22.257Z,12.70
2023-05-01T01:34:10.012Z,12.70
2023-05-01T01:36:45.228Z,12.70
2023-05-01T01:39:24.023Z,12.80
2023-05-01T01:41:54.393Z,12.80
2023-05-01T01:44:29.658Z,12.80
2023-05-01T01:47:00.239Z,12.80
2023-05-01T01:49:32.446Z,12.80
2023-05-01T01:52:03.091Z,12.80
2023-05-01T01:54:36.450Z,12.80
2023-05-01T01:57:08.255Z,12.90
2023-05-01T01:59:36.745Z,12.90
2023-05-01T02:02:05.951Z,12.90
2023-05-01T02:04:35.965Z,12.90
2023-05-01T02:07:05.950Z,12.90
2023-05-01T02:09:36.524Z,12.90
2023-05-01T02:12:06.105Z,12.90
2023-05-01T02:14:35.107Z,12.90
2023-05-01T02:17:03.581Z,12.90
2023-05-01T02:19:34.526Z,12.90
2023-05-01T02:22:05.179Z,12.90
2023-05-01T02:24:34.809Z,12.90
2023-05-01T02:27:07.719Z,12.80
2023-05-01T02:29:35.700Z,12.90
2023-05-01T02:32:03.756Z,12.90
2023-05-01T02:34:31.716Z,12.90
2023-05-01T02:36:59.606Z,12.90
2023-05-01T02:39:28.922Z,12.80
2023-05-01T02:41:59.788Z,12.90
2023-05-01T02:44:28.763Z,12.80
2023-05-01T02:46:58.129Z,12.80
2023-05-01T02:49:26.684Z,12.80
2023-05-01T02:51:54.989Z,12.80
2023-05-01T02:54:22.992Z,12.80
2023-05-01T02:56:53.817Z,12.80
2023-05-01T02:59:21.792Z,12.70
2023-05-01T03:01:49.730Z,12.70
2023-05-01T03:04:17.806Z,12.70
2023-05-01T03:06:45.828Z,12.70
2023-05-01T03:09:13.894Z,12.60
2023-05-01T03:11:41.934Z,12.60
2023-05-01T03:14:12.165Z,12.60
2023-05-01T03:16:40.529Z,12.60
2023-05-01T03:19:08.596Z,12.50
2023-05-01T03:21:36.958Z,12.50
2023-05-01T03:24:05.001Z,12.50
2023-05-01T03:26:33.024Z,12.50
2023-05-01T03:29:01.000Z,12.40
2023-05-01T03:31:30.364Z,12.40
2023-05-01T03:33:58.423Z,12.40
2023-05-01T03:36:27.591Z,12.30
2023-05-01T03:38:55.522Z,12.30
2023-05-01T03:41:23.518Z,12.20
2023-05-01T03:43:52.104Z,12.30
2023-05-01T03:46:20.082Z,12.20
2023-05-01T03:48:49.317Z,12.20
2023-05-01T03:51:17.254Z,12.20
2023-05-01T03:53:45.199Z,12.20
2023-05-01T03:56:13.114Z,12.10
2023-05-01T03:58:40.978Z,12.10
2023-05-01T04:01:08.898Z,12.10
2023-05-01T04:03:36.862Z,12.00
2023-05-01T04:06:06.485Z,12.10
2023-05-01T04:08:34.488Z,12.00
2023-05-01T04:11:02.440Z,12.00
2023-05-01T04:13:30.965Z,12.00
2023-05-01T04:15:59.439Z,11.90
2023-05-01T04:18:27.434Z,11.90
2023-05-01T04:20:55.354Z,11.90
2023-05-01T04:23:24.889Z,11.90
2023-05-01T04:25:52.895Z,11.80
2023-05-01T04:28:21.023Z,11.80
2023-05-01T04:30:49.031Z,11.80
2023-05-01T04:33:16.963Z,11.80
2023-05-01T04:35:44.861Z,11.80
2023-05-01T04:38:12.696Z,11.80
2023-05-01T04:40:42.022Z,11.80
2023-05-01T04:43:09.892Z,11.80
2023-05-01T04:45:39.306Z,11.80
2023-05-01T04:48:07.933Z,11.80
2023-05-01T04:50:35.945Z,11.80
2023-05-01T04:53:03.834Z,11.80
2023-05-01T04:55:31.735Z,11.90
2023-05-01T04:58:02.649Z,11.90
2023-05-01T05:00:30.849Z,11.90
2023-05-01T05:02:58.883Z,12.00
2023-05-01T05:05:26.878Z,12.00
2023-05-01T05:07:54.817Z,12.00
2023-05-01T05:10:22.772Z,12.10
2023-05-01T05:12:50.733Z,12.10
2023-05-01T05:15:20.045Z,12.10
2023-05-01T05:17:47.977Z,12.20
2023-05-01T05:20:16.108Z,12.20
2023-05-01T05:22:43.981Z,12.20
2023-05-01T05:25:12.618Z,12.30
2023-05-01T05:27:40.897Z,12.30
2023-05-01T05:30:10.357Z,12.40
2023-05-01T05:32:39.652Z,12.40
2023-05-01T05:35:08.262Z,12.50
2023-05-01T05:37:36.124Z,12.50
2023-05-01T05:40:04.198Z,12.60
2023-05-01T05:42:32.159Z,12.70
2023-05-01T05:45:00.016Z,12.70
2023-05-01T05:47:27.900Z,12.80
2023-05-01T05:49:57.216Z,12.80
2023-05-01T05:52:25.383Z,12.90
2023-05-01T05:54:53.348Z,12.90
2023-05-01T05:57:21.288Z,13.00
2023-05-01T05:59:49.318Z,13.00
2023-05-01T06:02:17.192Z,13.10
2023-05-01T06:04:46.137Z,13.10
2023-05-01T06:07:15.315Z,13.20
2023-05-01T06:09:43.440Z,13.20
2023-05-01T06:12:11.239Z,13.30
2023-05-01T06:14:39.105Z,13.30
2023-05-01T06:17:07.500Z,13.40
2023-05-01T06:19:35.946Z,13.50
2023-05-01T06:22:03.894Z,13.50
2023-05-01T06:24:33.298Z,13.60
2023-05-01T06:27:01.612Z,13.70
2023-05-01T06:29:29.647Z,13.80
2023-05-01T06:31:57.750Z,13.90
2023-05-01T06:34:25.804Z,14.00
2023-05-01T06:36:53.670Z,14.00
2023-05-01T06:39:21.604Z,14.00
2023-05-01T06:41:50.809Z,14.10
2023-05-01T06:44:18.915Z,14.00
2023-05-01T06:46:46.839Z,14.10
2023-05-01T06:49:14.805Z,14.10
2023-05-01T06:51:42.753Z,14.20
2023-05-01T06:54:10.635Z,14.30
2023-05-01T06:56:39.719Z,14.40
2023-05-01T06:59:09.282Z,14.40
2023-05-01T07:01:37.418Z,14.40
2023-05-01T07:04:05.607Z,14.50
2023-05-01T07:06:33.793Z,14.60
2023-05-01T07:09:01.741Z,14.70
2023-05-01T07:11:29.606Z,14.70
2023-05-01T07:13:57.549Z,14.80
2023-05-01T07:16:26.874Z,14.90
2023-05-01T07:18:54.900Z,15.00
2023-05-01T07:21:22.820Z,15.10
2023-05-01T07:23:50.814Z,15.10
2023-05-01T07:26:19.725Z,15.20
2023-05-01T07:28:47.595Z,15.40
2023-05-01T07:31:16.028Z,15.40
2023-05-01T07:33:45.716Z,15.50
2023-05-01T07:36:14.049Z,15.50
2023-05-01T07:38:42.128Z,15.60
2023-05-01T07:41:10.117Z,15.60
2023-05-01T07:43:38.052Z,15.60
2023-05-01T07:46:06.326Z,15.70
2023-05-01T07:48:35.041Z,15.80
2023-05-01T07:51:05.378Z,15.80
2023-05-01T07:53:33.334Z,15.90
2023-05-01T07:56:08.807Z,15.90
2023-05-01T07:58:37.962Z,16.00
2023-05-01T08:01:07.422Z,16.00
2023-05-01T08:03:35.477Z,16.00
2023-05-01T08:06:05.051Z,16.10
2023-05-01T08:08:33.032Z,16.10
2023-05-01T08:11:01.065Z,16.10
2023-05-01T08:13:28.878Z,16.20
2023-05-01T08:15:59.163Z,16.30
2023-05-01T08:18:27.113Z,16.50
2023-05-01T08:20:54.968Z,16.80
2023-05-01T08:23:25.200Z,17.00
2023-05-01T08:25:53.735Z,17.10
2023-05-01T08:28:21.789Z,17.20
2023-05-01T08:30:50.261Z,17.20
2023-05-01T08:33:18.289Z,17.30
2023-05-01T08:35:46.203Z,17.50
2023-05-01T08:38:14.105Z,17.70
2023-05-01T08:40:48.290Z,17.90
2023-05-01T08:43:16.637Z,18.00
2023-05-01T08:45:45.302Z,18.20
2023-05-01T08:48:14.689Z,18.40
2023-05-01T08:50:46.822Z,18.50
2023-05-01T08:53:17.243Z,18.80
2023-05-01T08:55:47.800Z,18.90
2023-05-01T08:58:18.271Z,19.10
2023-05-01T09:00:47.634Z,19.30
2023-05-01T09:03:16.344Z,19.50
2023-05-01T09:05:44.591Z,19.70
2023-05-01T09:08:12.619Z,19.80
2023-05-01T09:10:46.323Z,19.70
2023-05-01T09:13:15.763Z,19.60
2023-05-01T09:15:44.257Z,19.60
2023-05-01T09:18:12.831Z,19.70
2023-05-01T09:20:41.429Z,19.90
2023-05-01T09:23:09.515Z,20.00
2023-05-01T09:25:38.560Z,20.00
2023-05-01T09:28:07.129Z,20.10
2023-05-01T09:30:38.042Z,20.00
2023-05-01T09:33:10.342Z,19.90
2023-05-01T09:35:54.828Z,20.00
2023-05-01T09:38:25.142Z,20.00
2023-05-01T09:40:56.634Z,20.10
2023-05-01T09:43:28.440Z,20.30
2023-05-01T09:46:06.588Z,20.60
2023-05-01T09:48:36.197Z,21.40
2023-05-01T09:51:22.892Z,22.30
2023-05-01T09:53:51.433Z,23.50
2023-05-01T09:56:20.270Z,24.90
2023-05-01T09:58:48.382Z,26.20
2023-05-01T10:01:17.949Z,27.60
2023-05-01T10:03:46.865Z,29.00
2023-05-01T10:06:29.264Z,30.40
2023-05-01T10:08:57.797Z,31.30
2023-05-01T10:11:26.837Z,31.60
2023-05-01T10:14:08.539Z,31.90
2023-05-01T10:16:39.576Z,32.70
2023-05-01T10:19:07.732Z,33.10
2023-05-01T10:21:36.259Z,33.60
2023-05-01T10:24:05.747Z,34.40
2023-05-01T10:26:35.069Z,35.30
2023-05-01T10:29:03.674Z,35.70
2023-05-01T10:31:32.943Z,36.50
2023-05-01T10:34:02.984Z,37.30
2023-05-01T10:36:38.038Z,38.10
2023-05-01T10:39:06.104Z,38.70
2023-05-01T10:42:03.653Z,38.60
2023-05-01T10:44:32.391Z,39.20
2023-05-01T10:47:00.346Z,39.80
2023-05-01T10:50:04.730Z,40.10
2023-05-01T10:52:52.861Z,39.30
2023-05-01T10:55:33.896Z,38.30
2023-05-01T10:58:01.840Z,37.60
2023-05-01T11:00:29.866Z,36.70
2023-05-01T11:03:31.292Z,35.30
2023-05-01T11:06:10.233Z,34.20
2023-05-01T11:08:39.889Z,33.60
2023-05-01T11:11:45.447Z,33.50
2023-05-01T11:14:13.349Z,33.30
2023-05-01T11:16:49.103Z,33.00
2023-05-01T11:19:51.065Z,32.40
2023-05-01T11:22:20.790Z,31.70
2023-05-01T11:24:49.761Z,31.20
2023-05-01T11:27:18.304Z,30.70
2023-05-01T11:29:49.624Z,30.30
2023-05-01T11:32:25.141Z,29.90
2023-05-01T11:34:53.731Z,29.50
2023-05-01T11:37:40.921Z,29.30
2023-05-01T11:40:20.945Z,29.00
2023-05-01T11:42:49.112Z,28.80
2023-05-01T11:45:17.544Z,28.80
2023-05-01T11:47:45.508Z,28.70
2023-05-01T11:50:13.543Z,28.60
2023-05-01T11:52:48.706Z,28.50
2023-05-01T11:55:17.313Z,28.30
2023-05-01T11:57:49.765Z,28.20
2023-05-01T12:00:27.123Z,28.10
2023-05-01T12:03:00.649Z,27.80
2023-05-01T12:05:30.348Z,27.70
2023-05-01T12:08:11.275Z,27.50
2023-05-01T12:10:40.902Z,27.20
2023-05-01T12:13:10.638Z,27.00
2023-05-01T12:15:40.817Z,26.80
2023-05-01T12:18:09.605Z,26.70
2023-05-01T12:20:41.921Z,26.50
2023-05-01T12:23:12.789Z,26.40
2023-05-01T12:25:42.917Z,26.20
2023-05-01T12:28:14.148Z,26.20
2023-05-01T12:30:43.041Z,26.20
2023-05-01T12:33:12.895Z,26.20
2023-05-01T12:35:41.772Z,26.20
2023-05-01T12:38:15.610Z,26.20
2023-05-01T12:40:53.388Z,26.20
2023-05-01T12:43:22.279Z,26.20
2023-05-01T12:45:54.319Z,26.20
2023-05-01T12:48:22.655Z,26.20
2023-05-01T12:50:54.677Z,26.20
2023-05-01T12:53:25.376Z,26.20
2023-05-01T12:55:54.553Z,26.30
2023-05-01T12:58:23.006Z,26.40
2023-05-01T13:00:52.906Z,26.40
2023-05-01T13:03:25.061Z,26.40
2023-05-01T13:05:58.194Z,26.10
2023-05-01T13:08:32.478Z,25.80
2023-05-01T13:11:02.819Z,25.70
2023-05-01T13:13:32.824Z,25.50
2023-05-01T13:16:10.238Z,25.30
2023-05-01T13:18:46.291Z,25.20
2023-05-01T13:21:16.865Z,25.20
2023-05-01T13:23:56.557Z,25.20
2023-05-01T13:26:30.282Z,25.20
2023-05-01T13:28:59.913Z,25.30
2023-05-01T13:31:27.986Z,25.30
2023-05-01T13:33:58.365Z,25.30
2023-05-01T13:36:27.532Z,25.30
2023-05-01T13:38:57.601Z,25.30
2023-05-01T13:41:28.382Z,25.20
2023-05-01T13:43:57.922Z,25.10
2023-05-01T13:46:27.460Z,25.10
2023-05-01T13:48:56.370Z,25.00
2023-05-01T13:51:27.900Z,24.90
2023-05-01T13:53:57.455Z,24.80
2023-05-01T13:56:25.382Z,24.70
2023-05-01T13:58:53.536Z,24.50
2023-05-01T14:01:23.429Z,24.40
2023-05-01T14:03:51.588Z,24.10
2023-05-01T14:06:21.335Z,23.90
2023-05-01T14:08:51.906Z,23.60
2023-05-01T14:11:21.174Z,23.30
2023-05-01T14:13:51.423Z,23.00
2023-05-01T14:16:25.699Z,22.60
2023-05-01T14:18:56.650Z,22.30
2023-05-01T14:21:27.305Z,22.00
2023-05-01T14:23:56.637Z,21.70
2023-05-01T14:26:26.153Z,21.40
2023-05-01T14:28:56.580Z,21.10
2023-05-01T14:31:29.542Z,20.90
2023-05-01T14:33:59.716Z,20.60
2023-05-01T14:36:31.045Z,20.40
2023-05-01T14:38:59.602Z,20.20
2023-05-01T14:41:29.669Z,19.90
2023-05-01T14:43:57.685Z,19.60
2023-05-01T14:46:37.319Z,19.40
2023-05-01T14:49:06.052Z,19.10
2023-05-01T14:51:34.601Z,18.80
2023-05-01T14:54:02.524Z,18.50
2023-05-01T14:56:31.723Z,18.20
2023-05-01T14:59:00.859Z,17.90
2023-05-01T15:01:28.793Z,17.60
2023-05-01T15:03:56.962Z,17.40
2023-05-01T15:06:25.806Z,17.20
2023-05-01T15:08:53.783Z,17.00
2023-05-01T15:11:21.837Z,17.00
2023-05-01T15:13:51.014Z,16.90
2023-05-01T15:16:19.803Z,16.80
2023-05-01T15:18:47.864Z,16.80
2023-05-01T15:21:15.893Z,16.70
2023-05-01T15:23:45.334Z,16.70
2023-05-01T15:26:13.893Z,16.60
2023-05-01T15:28:41.865Z,16.60
2023-05-01T15:31:11.106Z,16.50
2023-05-01T15:33:38.986Z,16.50
2023-05-01T15:36:07.226Z,16.40
2023-05-01T15:38:35.220Z,16.40
2023-05-01T15:41:03.304Z,16.40
2023-05-01T15:43:31.441Z,16.50
2023-05-01T15:45:59.822Z,16.50
2023-05-01T15:48:29.214Z,16.50
2023-05-01T15:50:57.189Z,16.60
2023-05-01T15:53:25.154Z,16.70
2023-05-01T15:55:53.288Z,16.70
2023-05-01T15:58:24.740Z,16.80
2023-05-01T16:00:52.849Z,16.90
2023-05-01T16:03:20.981Z,16.90
2023-05-01T16:05:50.820Z,17.00
2023-05-01T16:08:19.188Z,17.00
2023-05-01T16:10:47.252Z,17.10
2023-05-01T16:13:15.491Z,17.10
2023-05-01T16:15:43.613Z,17.20
2023-05-01T16:18:19.853Z,17.40
2023-05-01T16:20:47.864Z,17.60
2023-05-01T16:23:17.349Z,17.80
2023-05-01T16:25:45.224Z,18.00
2023-05-01T16:28:13.710Z,18.20
2023-05-01T16:30:45.569Z,18.30
2023-05-01T16:33:18.767Z,18.50
2023-05-01T16:35:49.097Z,18.50
2023-05-01T16:38:18.977Z,18.60
2023-05-01T16:40:48.280Z,18.60
2023-05-01T16:43:16.547Z,18.60
2023-05-01T16:45:44.658Z,18.60
2023-05-01T16:48:13.455Z,18.60
2023-05-01T16:50:42.611Z,18.50
2023-05-01T16:53:10.523Z,18.30
2023-05-01T16:55:39.811Z,18.30
2023-05-01T16:58:07.950Z,18.20
2023-05-01T17:00:35.999Z,18.10
2023-05-01T17:03:04.037Z,18.00
2023-05-01T17:05:31.984Z,17.90
2023-05-01T17:08:00.958Z,17.80
2023-05-01T17:10:28.933Z,17.70
2023-05-01T17:12:58.606Z,17.60
2023-05-01T17:15:27.338Z,17.50
2023-05-01T17:17:57.648Z,17.40
2023-05-01T17:20:25.551Z,17.20
2023-05-01T17:22:53.399Z,17.10
2023-05-01T17:25:21.334Z,17.00
2023-05-01T17:27:49.177Z,16.90
2023-05-01T17:30:18.480Z,16.80
2023-05-01T17:32:46.519Z,16.70
2023-05-01T17:35:15.653Z,16.60
2023-05-01T17:37:43.521Z,16.50
2023-05-01T17:40:12.128Z,16.40
2023-05-01T17:42:40.455Z,16.30
2023-05-01T17:45:10.340Z,16.30
2023-05-01T17:47:41.563Z,16.20
2023-05-01T17:50:11.965Z,16.10
2023-05-01T17:52:39.998Z,16.10
2023-05-01T17:55:08.733Z,16.00
2023-05-01T17:57:36.993Z,16.00
2023-05-01T18:00:06.391Z,16.00
2023-05-01T18:02:35.584Z,16.00
2023-05-01T18:05:06.101Z,16.00
2023-05-01T18:07:34.020Z,15.90
2023-05-01T18:10:02.164Z,15.80
2023-05-01T18:12:30.844Z,15.80
2023-05-01T18:14:58.825Z,15.70
2023-05-01T18:17:26.749Z,15.60
2023-05-01T18:19:54.887Z,15.60
2023-05-01T18:22:24.147Z,15.50
2023-05-01T18:24:52.170Z,15.40
2023-05-01T18:27:20.135Z,15.30
2023-05-01T18:29:48.104Z,15.20
2023-05-01T18:32:15.966Z,15.20
2023-05-01T18:34:45.796Z,15.10
2023-05-01T18:37:13.782Z,15.10
2023-05-01T18:39:43.030Z,15.00
2023-05-01T18:42:10.906Z,14.90
2023-05-01T18:44:38.794Z,14.80
2023-05-01T18:47:06.917Z,14.70
2023-05-01T18:49:34.910Z,14.70
2023-05-01T18:52:03.272Z,14.60
2023-05-01T18:54:31.379Z,14.60
2023-05-01T18:57:00.602Z,14.50
2023-05-01T18:59:30.909Z,14.40
2023-05-01T19:01:58.998Z,14.30
2023-05-01T19:04:26.855Z,14.30
2023-05-01T19:06:54.844Z,14.20
2023-05-01T19:09:22.809Z,14.10
2023-05-01T19:11:50.749Z,14.00
2023-05-01T19:14:21.339Z,14.00
2023-05-01T19:16:49.489Z,13.90
2023-05-01T19:19:17.453Z,13.80
2023-05-01T19:21:45.387Z,13.70
2023-05-01T19:24:13.304Z,13.70
2023-05-01T19:26:41.133Z,13.70
2023-05-01T19:29:09.026Z,13.60
2023-05-01T19:31:38.328Z,13.50
2023-05-01T19:34:06.270Z,13.50
2023-05-01T19:36:34.109Z,13.50
2023-05-01T19:39:02.092Z,13.40
2023-05-01T19:41:29.996Z,13.30
2023-05-01T19:43:57.928Z,13.30
2023-05-01T19:46:25.968Z,13.30
2023-05-01T19:48:55.300Z,13.30
2023-05-01T19:51:23.291Z,13.20
2023-05-01T19:53:51.239Z,13.20
2023-05-01T19:56:19.193Z,13.10
2023-05-01T19:58:47.119Z,13.10
2023-05-01T20:01:15.223Z,13.00
2023-05-01T20:03:43.262Z,13.00
2023-05-01T20:06:12.589Z,13.00
2023-05-01T20:08:41.480Z,12.90
2023-05-01T20:11:09.472Z,12.90
2023-05-01T20:13:37.879Z,12.90
2023-05-01T20:16:06.308Z,12.90
2023-05-01T20:18:34.152Z,12.90
2023-05-01T20:21:02.097Z,12.80
2023-05-01T20:23:31.385Z,12.80
2023-05-01T20:25:59.386Z,12.80
2023-05-01T20:28:27.346Z,12.70
2023-05-01T20:30:55.436Z,12.70
2023-05-01T20:33:23.513Z,12.70
2023-05-01T20:35:53.016Z,12.70
2023-05-01T20:38:21.556Z,12.70
2023-05-01T20:40:50.881Z,12.70
2023-05-01T20:43:18.727Z,12.70
2023-05-01T20:45:46.772Z,12.70
2023-05-01T20:48:14.723Z,12.60
2023-05-01T20:50:43.745Z,12.60
2023-05-01T20:53:11.875Z,12.70
2023-05-01T20:55:39.710Z,12.60
2023-05-01T20:58:08.947Z,12.60
2023-05-01T21:00:36.936Z,12.60
2023-05-01T21:03:05.202Z,12.50
2023-05-01T21:05:33.260Z,12.50
2023-05-01T21:08:02.610Z,12.50
2023-05-01T21:10:30.583Z,12.40
2023-05-01T21:12:58.725Z,12.40
2023-05-01T21:15:28.040Z,12.40
2023-05-01T21:17:56.072Z,12.40
2023-05-01T21:20:32.021Z,12.30
2023-05-01T21:23:00.812Z,12.40
2023-05-01T21:25:31.571Z,12.30
2023-05-01T21:28:01.957Z,12.30
2023-05-01T21:30:34.246Z,12.20
2023-05-01T21:33:03.116Z,12.20
2023-05-01T21:35:31.081Z,12.20
2023-05-01T21:37:59.305Z,12.10
2023-05-01T21:40:27.853Z,12.10
2023-05-01T21:42:58.466Z,12.10
2023-05-01T21:45:27.333Z,12.10
2023-05-01T21:47:56.827Z,12.10
2023-05-01T21:50:24.872Z,12.10
2023-05-01T21:52:52.928Z,12.10
2023-05-01T21:55:22.365Z,12.10
2023-05-01T21:57:50.812Z,12.10
2023-05-01T22:00:19.303Z,12.10
2023-05-01T22:02:48.779Z,12.10
2023-05-01T22:05:22.378Z,12.10
2023-05-01T22:07:52.265Z,12.10
2023-05-01T22:10:21.128Z,12.10
2023-05-01T22:12:50.122Z,12.10
2023-05-01T22:15:18.140Z,12.10
2023-05-01T22:17:46.766Z,12.10
2023-05-01T22:20:15.020Z,12.10
2023-05-01T22:22:44.380Z,12.10
2023-05-01T22:25:13.114Z,12.20
2023-05-01T22:27:41.760Z,12.20
2023-05-01T22:30:10.836Z,12.20
2023-05-01T22:32:38.859Z,12.20
2023-05-01T22:35:08.366Z,12.20
2023-05-01T22:37:36.392Z,12.20
2023-05-01T22:40:06.935Z,12.20
2023-05-01T22:42:34.778Z,12.20
2023-05-01T22:45:02.666Z,12.20
2023-05-01T22:47:30.544Z,12.30
2023-05-01T22:49:58.638Z,12.30
2023-05-01T22:52:26.761Z,12.30
2023-05-01T22:54:55.993Z,12.30
2023-05-01T22:57:25.391Z,12.40
2023-05-01T22:59:55.369Z,12.40
2023-05-01T23:02:23.467Z,12.40
2023-05-01T23:04:52.750Z,12.40
2023-05-01T23:07:20.698Z,12.50
2023-05-01T23:09:48.809Z,12.50
2023-05-01T23:12:22.497Z,12.50
2023-05-01T23:14:51.825Z,12.50
2023-05-01T23:17:19.846Z,12.50
2023-05-01T23:19:47.710Z,12.50
2023-05-01T23:22:15.671Z,12.50
2023-05-01T23:24:48.126Z,12.50
2023-05-01T23:27:16.770Z,12.50
2023-05-01T23:29:56.591Z,12.50
2023-05-01T23:32:27.681Z,12.50
2023-05-01T23:34:56.217Z,12.50
2023-05-01T23:37:24.141Z,12.50
2023-05-01T23:39:53.564Z,12.60
2023-05-01T23:42:22.160Z,12.60
2023-05-01T23:44:50.226Z,12.60
2023-05-01T23:47:19.517Z,12.60
2023-05-01T23:49:47.739Z,12.60
2023-05-01T23:52:15.836Z,12.70
2023-05-01T23:54:43.768Z,12.70
2023-05-01T23:57:14.113Z,12.70
2023-05-01T23:59:42.332Z,12.70
